Time;durP1;ratioP1;P1;durP2;ratioP2;P2;SDS_P1;SDS_P2;PMS_P1;PMS_P2;Temp;Humidity;BMP_temperature;BMP_pressure;BME280_temperature;BME280_humidity;BME280_pressure;Samples;Min_cycle;Max_cycle;Signal;HPM_P1;HPM_P2
2022/09/08 00:02:24;;;;;;;12.20;5.68;;;;;;;20.61;59.19;101092.81;5055721;28;20108;-87
2022/09/08 00:04:50;;;;;;;17.63;5.63;;;;;;;20.71;58.97;101094.47;5055800;28;20495;-86
2022/09/08 00:07:16;;;;;;;15.40;5.60;;;;;;;20.67;58.92;101093.16;5056199;28;20063;-86
2022/09/08 00:09:42;;;;;;;19.70;5.47;;;;;;;20.65;58.99;101079.63;5056382;28;20082;-86
2022/09/08 00:12:11;;;;;;;11.00;5.65;;;;;;;20.67;59.14;101084.94;5055910;28;20498;-87
2022/09/08 00:14:37;;;;;;;19.55;6.43;;;;;;;20.69;59.20;101089.19;5055535;28;20114;-86
2022/09/08 00:17:02;;;;;;;13.93;5.30;;;;;;;20.72;59.05;101082.50;5056041;28;20033;-88
2022/09/08 00:19:28;;;;;;;14.68;5.47;;;;;;;20.69;59.18;101088.34;5055489;28;20029;-86
2022/09/08 00:21:54;;;;;;;12.23;6.40;;;;;;;20.76;59.02;101089.34;5055687;28;20063;-86
2022/09/08 00:24:19;;;;;;;19.77;5.82;;;;;;;20.72;59.13;101091.56;5055448;28;20021;-87
2022/09/08 00:26:45;;;;;;;28.75;6.80;;;;;;;20.71;59.11;101089.00;5055860;28;20417;-87
2022/09/08 00:29:11;;;;;;;16.45;6.25;;;;;;;20.66;59.14;101075.03;5056070;28;20123;-86
2022/09/08 00:31:38;;;;;;;16.83;5.18;;;;;;;20.70;59.28;101092.78;5055574;28;20032;-86
2022/09/08 00:34:03;;;;;;;27.30;5.85;;;;;;;20.67;59.37;101091.25;5055729;28;20513;-87
2022/09/08 00:36:31;;;;;;;16.65;5.45;;;;;;;20.60;59.38;101077.47;5055641;28;20033;-87
2022/09/08 00:38:58;;;;;;;24.13;6.20;;;;;;;20.57;59.52;101074.22;5055692;28;20031;-87
2022/09/08 00:41:24;;;;;;;14.25;5.82;;;;;;;20.61;59.62;101084.59;5053845;28;20033;-87
2022/09/08 00:44:01;;;;;;;17.48;6.43;;;;;;;20.67;59.57;101074.00;5055486;28;20453;-86
2022/09/08 00:46:37;;;;;;;18.50;7.22;;;;;;;20.55;59.80;101082.59;5055343;28;20036;-86
2022/09/08 00:49:16;;;;;;;12.98;5.57;;;;;;;20.53;59.80;101081.94;5055276;28;20045;-86
2022/09/08 00:51:45;;;;;;;13.85;5.53;;;;;;;20.54;59.97;101080.06;5056144;28;20029;-86
2022/09/08 00:54:12;;;;;;;11.18;5.57;;;;;;;20.45;60.10;101068.31;5055886;28;20051;-87
2022/09/08 00:56:41;;;;;;;17.92;5.32;;;;;;;20.49;59.94;101075.09;5055298;28;20021;-87
2022/09/08 00:59:07;;;;;;;12.48;5.65;;;;;;;20.38;60.03;101064.56;5055327;28;20446;-87
2022/09/08 01:01:35;;;;;;;11.48;4.88;;;;;;;20.48;60.17;101072.56;5054691;28;20037;-88
2022/09/08 01:04:03;;;;;;;14.95;5.97;;;;;;;20.43;60.38;101066.75;5054469;28;20032;-87
2022/09/08 01:12:45;;;;;;;20.08;5.68;;;;;;;20.41;60.37;101063.38;5054510;28;20085;-87
2022/09/08 01:15:20;;;;;;;17.67;5.10;;;;;;;20.35;60.35;101067.66;5053807;28;20487;-87
2022/09/08 01:17:48;;;;;;;14.70;5.47;;;;;;;20.33;60.83;101066.16;5053925;28;20037;-87
2022/09/08 01:20:16;;;;;;;12.75;5.60;;;;;;;20.29;60.58;101064.78;5053586;28;20119;-87
2022/09/08 01:23:00;;;;;;;15.75;5.68;;;;;;;20.19;61.08;101069.56;5053219;28;20402;-86
2022/09/08 01:25:54;;;;;;;13.68;4.88;;;;;;;20.17;61.29;101072.47;5054107;28;20508;-87
2022/09/08 01:28:34;;;;;;;10.93;4.93;;;;;;;20.09;61.54;101067.88;5054674;28;20102;-87
2022/09/08 01:31:03;;;;;;;16.52;5.47;;;;;;;19.94;61.66;101049.66;5054278;28;20021;-87
2022/09/08 01:33:28;;;;;;;7.55;5.10;;;;;;;20.14;61.46;101071.97;5053765;28;20048;-87
2022/09/08 01:35:54;;;;;;;11.07;4.68;;;;;;;20.16;61.47;101064.44;5054517;28;20498;-87
2022/09/08 01:38:19;;;;;;;16.45;5.82;;;;;;;19.89;61.62;101024.78;5054285;28;20029;-87
2022/09/08 01:40:45;;;;;;;9.70;5.45;;;;;;;20.13;61.65;101060.19;5053477;28;20024;-87
2022/09/08 01:43:10;;;;;;;11.93;5.68;;;;;;;20.08;61.62;101068.94;5054044;28;20025;-87
2022/09/08 01:45:38;;;;;;;21.13;7.47;;;;;;;20.09;61.48;101056.09;5052398;28;20394;-87
2022/09/08 01:48:04;;;;;;;15.73;4.72;;;;;;;20.05;61.76;101065.69;5053557;28;20040;-87
2022/09/08 01:50:30;;;;;;;18.65;5.65;;;;;;;20.00;61.93;101054.44;5053953;28;20094;-87
2022/09/08 01:52:55;;;;;;;11.02;5.43;;;;;;;20.02;61.78;101060.59;5053459;28;20017;-87
2022/09/08 01:55:21;;;;;;;13.35;5.32;;;;;;;20.01;61.60;101040.63;5053941;28;20021;-87
2022/09/08 01:57:47;;;;;;;11.80;5.05;;;;;;;20.07;61.80;101069.94;5054257;28;20035;-87
2022/09/08 02:00:12;;;;;;;16.52;5.50;;;;;;;20.04;62.13;101061.25;5053925;28;20032;-87
2022/09/08 02:02:38;;;;;;;22.73;6.13;;;;;;;20.03;62.18;101054.94;5053662;28;20029;-86
2022/09/08 02:05:03;;;;;;;18.98;6.00;;;;;;;20.10;61.81;101055.09;5053755;28;20033;-87
2022/09/08 02:07:31;;;;;;;24.35;7.18;;;;;;;20.03;62.06;101054.06;5053613;28;20017;-85
2022/09/08 02:09:56;;;;;;;18.85;5.30;;;;;;;20.10;61.99;101057.81;5052604;28;20028;-86
2022/09/08 02:12:22;;;;;;;16.00;5.82;;;;;;;20.12;61.97;101053.03;5054146;28;20039;-86
2022/09/08 02:14:47;;;;;;;19.92;5.40;;;;;;;20.14;62.03;101056.44;5053327;28;20045;-86
2022/09/08 02:17:13;;;;;;;14.82;5.28;;;;;;;20.10;62.02;101049.63;5053937;28;20037;-88
2022/09/08 02:19:38;;;;;;;13.95;6.47;;;;;;;20.02;62.14;101036.00;5053754;28;20499;-88
2022/09/08 02:22:04;;;;;;;10.65;5.40;;;;;;;20.04;62.08;101045.72;5053562;28;20024;-87
2022/09/08 02:24:29;;;;;;;17.38;5.63;;;;;;;20.00;62.19;101032.59;5054039;28;20029;-87
2022/09/08 02:26:55;;;;;;;31.83;7.15;;;;;;;20.08;62.22;101046.22;5053874;28;20078;-87
2022/09/08 02:29:21;;;;;;;30.85;8.10;;;;;;;20.06;62.27;101045.53;5053312;28;20055;-87
2022/09/08 02:31:47;;;;;;;17.48;5.70;;;;;;;20.01;62.72;101046.06;5053818;28;20028;-87
2022/09/08 02:34:13;;;;;;;24.92;7.38;;;;;;;20.02;62.77;101041.47;5053328;28;20035;-87
2022/09/08 02:36:38;;;;;;;23.15;6.25;;;;;;;19.99;62.83;101042.69;5053732;28;20059;-88
2022/09/08 02:39:04;;;;;;;19.13;6.72;;;;;;;20.00;62.84;101044.38;5053358;28;20099;-87
2022/09/08 02:41:30;;;;;;;13.00;6.05;;;;;;;19.93;62.83;101032.47;5053710;28;20036;-88
2022/09/08 02:43:56;;;;;;;23.88;6.53;;;;;;;20.00;62.77;101048.97;5053591;28;20455;-87
2022/09/08 02:46:21;;;;;;;14.63;5.38;;;;;;;20.02;62.83;101034.13;5053569;28;20386;-88
2022/09/08 02:48:47;;;;;;;22.40;5.63;;;;;;;19.94;63.07;101038.75;5053331;28;20036;-87
2022/09/08 02:51:17;;;;;;;29.63;7.18;;;;;;;19.97;63.13;101041.13;5053675;28;20183;-87
2022/09/08 02:53:42;;;;;;;11.18;4.97;;;;;;;19.93;62.97;101031.59;5053738;28;20029;-88
2022/09/08 02:56:09;;;;;;;24.33;6.35;;;;;;;19.95;63.24;101029.53;5052944;28;20082;-87
2022/09/08 02:58:36;;;;;;;23.15;6.70;;;;;;;19.96;63.09;101026.66;5054260;28;20112;-88
2022/09/08 03:01:02;;;;;;;15.27;5.32;;;;;;;19.96;62.98;101031.25;5053011;28;20033;-88
2022/09/08 03:03:29;;;;;;;23.30;6.38;;;;;;;19.97;63.29;101030.22;5053654;28;20025;-87
2022/09/08 03:05:55;;;;;;;20.80;6.30;;;;;;;19.98;63.42;101030.03;5052804;28;20028;-88
2022/09/08 03:08:21;;;;;;;17.30;5.82;;;;;;;19.97;63.15;101033.78;5052872;28;20025;-87
2022/09/08 03:10:50;;;;;;;16.23;5.88;;;;;;;19.96;63.26;101028.53;5052660;28;20025;-87
2022/09/08 03:13:16;;;;;;;20.40;6.63;;;;;;;19.89;63.50;101032.97;5053386;28;20056;-87
2022/09/08 03:15:43;;;;;;;30.58;6.15;;;;;;;19.82;63.71;101031.97;5056469;28;20025;-86
2022/09/08 03:18:08;;;;;;;30.77;6.20;;;;;;;19.88;63.76;101029.38;5056201;28;20029;-86
2022/09/08 03:20:35;;;;;;;24.98;6.82;;;;;;;19.83;63.84;101036.41;5056455;28;20369;-86
2022/09/08 03:23:02;;;;;;;16.70;5.47;;;;;;;19.80;63.99;101020.38;5055696;28;20025;-87
2022/09/08 03:25:28;;;;;;;18.02;6.57;;;;;;;19.82;63.84;101041.00;5056806;28;20070;-81
2022/09/08 03:27:54;;;;;;;17.42;6.32;;;;;;;19.77;64.10;101037.97;5056419;28;20025;-88
2022/09/08 03:30:20;;;;;;;10.18;5.72;;;;;;;19.73;64.07;101030.28;5056736;28;20028;-87
2022/09/08 03:32:46;;;;;;;45.20;8.43;;;;;;;19.81;64.01;101047.50;5058219;28;20043;-88
2022/09/08 03:35:14;;;;;;;30.45;7.05;;;;;;;19.74;64.17;101029.25;5056649;28;20087;-88
2022/09/08 03:37:40;;;;;;;35.10;7.93;;;;;;;19.71;64.39;101037.78;5056843;28;20029;-80
2022/09/08 03:40:08;;;;;;;31.02;7.28;;;;;;;19.82;64.35;101045.59;5055143;28;20095;-81
2022/09/08 03:42:38;;;;;;;41.80;7.25;;;;;;;19.82;64.42;101045.59;5055332;28;20041;-86
2022/09/08 03:45:07;;;;;;;46.75;8.40;;;;;;;19.77;64.42;101031.63;5054522;28;20498;-82
2022/09/08 03:47:33;;;;;;;49.35;7.60;;;;;;;19.85;64.43;101039.78;5054066;28;20552;-80
2022/09/08 03:49:59;;;;;;;42.60;7.43;;;;;;;19.85;64.43;101045.25;5055151;28;20036;-80
2022/09/08 03:52:26;;;;;;;24.48;7.25;;;;;;;19.85;64.48;101042.53;5055000;28;20463;-84
2022/09/08 03:54:52;;;;;;;26.40;7.32;;;;;;;19.76;64.33;101036.25;5055168;28;20032;-85
2022/09/08 03:57:21;;;;;;;22.30;8.40;;;;;;;19.86;64.60;101042.38;5054941;28;20033;-86
2022/09/08 03:59:49;;;;;;;22.55;7.47;;;;;;;19.80;64.61;101042.22;5053414;28;20501;-81
2022/09/08 04:02:15;;;;;;;24.25;7.38;;;;;;;19.81;64.77;101049.38;5052125;28;20044;-79
2022/09/08 04:04:40;;;;;;;31.48;7.63;;;;;;;19.77;65.03;101039.81;5053191;28;20048;-84
2022/09/08 04:07:06;;;;;;;46.97;9.45;;;;;;;19.76;64.82;101028.06;5054624;28;20604;-82
2022/09/08 04:09:32;;;;;;;39.38;8.18;;;;;;;19.81;64.98;101044.78;5053908;28;20104;-82
2022/09/08 04:11:57;;;;;;;33.53;8.10;;;;;;;19.85;65.05;101045.25;5052798;28;20167;-81
2022/09/08 04:14:23;;;;;;;55.65;8.55;;;;;;;19.80;65.20;101031.28;5052756;28;20045;-81
2022/09/08 04:16:48;;;;;;;51.15;9.30;;;;;;;19.99;64.90;101033.63;5053484;28;20036;-79
2022/09/08 04:19:15;;;;;;;91.40;13.02;;;;;;;19.98;64.64;101034.66;5055516;28;20044;-86
2022/09/08 04:21:41;;;;;;;82.55;12.60;;;;;;;20.04;64.78;101044.88;5053194;28;20510;-80
2022/09/08 04:24:06;;;;;;;71.70;10.88;;;;;;;20.13;64.63;101038.34;5053321;28;20482;-83
2022/09/08 04:26:31;;;;;;;131.40;14.02;;;;;;;20.07;64.62;101039.91;5053257;28;20066;-85
2022/09/08 04:28:58;;;;;;;95.70;14.07;;;;;;;20.11;64.84;101051.34;5055099;28;20104;-87
2022/09/08 04:31:24;;;;;;;52.00;8.77;;;;;;;20.18;64.55;101049.63;5054362;28;20029;-85
2022/09/08 04:33:50;;;;;;;77.90;12.55;;;;;;;20.25;64.45;101055.19;5053631;28;20031;-85
2022/09/08 04:36:18;;;;;;;62.58;11.77;;;;;;;20.24;64.25;101037.97;5054443;28;20471;-84
2022/09/08 04:38:44;;;;;;;59.45;10.63;;;;;;;20.35;64.31;101059.47;5054507;28;20029;-84
2022/09/08 04:41:12;;;;;;;86.10;11.13;;;;;;;20.47;64.03;101051.72;5053162;28;20033;-84
2022/09/08 04:43:38;;;;;;;103.43;13.68;;;;;;;20.48;64.02;101064.38;5053199;28;20028;-85
2022/09/08 04:46:11;;;;;;;77.03;11.52;;;;;;;20.50;64.15;101068.63;5054831;28;20383;-85
2022/09/08 04:48:41;;;;;;;76.10;12.20;;;;;;;20.55;63.92;101058.00;5054375;28;20037;-85
2022/09/08 04:51:07;;;;;;;91.70;11.77;;;;;;;20.63;63.56;101068.91;5054462;28;20513;-85
2022/09/08 04:53:35;;;;;;;60.17;9.95;;;;;;;20.69;63.38;101066.47;5052970;28;20033;-86
2022/09/08 04:56:01;;;;;;;103.63;12.32;;;;;;;20.74;63.29;101066.78;5054634;28;20478;-85
2022/09/08 04:58:29;;;;;;;55.20;10.18;;;;;;;20.80;63.25;101071.50;5039884;28;20060;-85
2022/09/08 05:01:12;;;;;;;48.40;10.63;;;;;;;20.90;62.71;101075.75;5053968;28;20102;-85
2022/09/08 05:03:38;;;;;;;73.90;10.65;;;;;;;20.96;62.66;101079.63;5052595;28;20029;-86
2022/09/08 05:06:09;;;;;;;62.90;10.60;;;;;;;21.01;62.43;101078.03;5052779;28;20036;-84
2022/09/08 05:08:36;;;;;;;24.63;8.23;;;;;;;21.06;62.16;101081.09;5052507;28;20028;-83
2022/09/08 05:11:01;;;;;;;28.60;7.13;;;;;;;21.08;61.74;101069.97;5053581;28;20347;-91
2022/09/08 05:13:29;;;;;;;23.77;6.60;;;;;;;21.18;61.36;101084.31;5052145;28;20064;-81
2022/09/08 05:16:05;;;;;;;18.00;6.10;;;;;;;21.25;61.05;101079.81;5054649;28;20119;-87
2022/09/08 05:18:31;;;;;;;12.10;5.65;;;;;;;21.31;60.70;101079.06;5055621;28;20540;-84
2022/09/08 05:20:56;;;;;;;13.32;6.30;;;;;;;21.40;60.52;101079.84;5051856;28;20028;-82
2022/09/08 05:23:22;;;;;;;34.10;6.80;;;;;;;21.51;60.13;101074.78;5050691;28;20088;-82
2022/09/08 05:26:17;;;;;;;14.40;5.78;;;;;;;21.54;59.75;101079.88;5051668;28;20025;-79
2022/09/08 05:28:43;;;;;;;11.65;5.75;;;;;;;21.49;59.82;101076.00;5053112;28;20044;-79
2022/09/08 05:31:16;;;;;;;19.85;7.03;;;;;;;21.59;59.78;101074.69;5050925;28;20032;-79
2022/09/08 05:33:42;;;;;;;19.58;6.13;;;;;;;21.78;59.38;101080.69;5051468;28;20040;-82
2022/09/08 05:36:29;;;;;;;11.10;6.10;;;;;;;21.79;59.34;101076.91;5050739;28;20102;-79
2022/09/08 05:38:54;;;;;;;16.23;5.45;;;;;;;21.90;59.31;101087.44;5049775;28;20043;-79
2022/09/08 05:41:21;;;;;;;17.25;5.55;;;;;;;21.97;59.13;101086.50;5051138;28;20033;-80
2022/09/08 05:43:47;;;;;;;13.50;4.82;;;;;;;22.01;58.86;101081.50;5051229;28;20028;-80
2022/09/08 05:46:13;;;;;;;28.67;10.93;;;;;;;22.08;58.62;101066.84;5051053;28;20422;-79
2022/09/08 05:48:38;;;;;;;9.15;6.15;;;;;;;22.13;58.76;101074.53;5049720;28;20045;-79
2022/09/08 05:51:09;;;;;;;33.53;7.03;;;;;;;22.21;58.62;101082.66;5051155;28;20025;-79
2022/09/08 05:53:36;;;;;;;24.30;6.47;;;;;;;22.21;58.46;101078.03;5050883;28;20029;-77
2022/09/08 05:56:05;;;;;;;32.13;9.15;;;;;;;22.36;58.45;101079.88;5050864;28;20108;-80
2022/09/08 05:58:31;;;;;;;24.77;6.22;;;;;;;22.41;58.49;101078.31;5049322;28;20413;-79
2022/09/08 06:01:07;;;;;;;24.50;10.65;;;;;;;22.51;57.97;101084.31;5049309;28;20048;-79
2022/09/08 06:03:33;;;;;;;26.52;8.63;;;;;;;22.55;58.04;101085.66;5049716;28;20032;-83
2022/09/08 06:06:11;;;;;;;40.28;15.13;;;;;;;22.63;57.88;101080.03;5050665;28;20033;-79
2022/09/08 06:08:38;;;;;;;18.73;5.50;;;;;;;22.66;58.00;101081.56;5050998;28;20036;-80
2022/09/08 06:11:06;;;;;;;30.02;10.15;;;;;;;22.69;57.83;101071.06;5050914;28;20025;-79
2022/09/08 06:13:33;;;;;;;8.57;4.88;;;;;;;22.77;57.58;101078.34;5050332;28;20527;-79
2022/09/08 06:16:07;;;;;;;13.85;5.20;;;;;;;22.68;57.54;101083.09;5050212;28;20037;-80
2022/09/08 06:18:34;;;;;;;9.07;4.78;;;;;;;22.76;57.80;101085.72;5049925;28;20033;-79
2022/09/08 06:21:27;;;;;;;26.45;6.22;;;;;;;22.86;57.80;101082.69;5050362;28;20108;-82
2022/09/08 06:23:55;;;;;;;14.45;6.32;;;;;;;22.92;57.48;101084.66;5050412;28;20043;-82
2022/09/08 06:26:56;;;;;;;19.90;5.25;;;;;;;22.94;57.34;101077.06;5052033;28;20028;-84
2022/09/08 06:29:28;;;;;;;9.50;5.03;;;;;;;23.00;57.15;101086.41;5051483;28;20037;-82
2022/09/08 06:31:57;;;;;;;19.77;5.57;;;;;;;22.97;57.42;101084.06;5052089;28;20041;-84
2022/09/08 06:34:29;;;;;;;19.35;4.80;;;;;;;23.03;57.38;101086.00;5051430;28;20037;-84
2022/09/08 06:37:04;;;;;;;10.80;4.40;;;;;;;23.06;57.67;101083.75;5052338;28;20029;-83
2022/09/08 06:39:43;;;;;;;12.25;4.72;;;;;;;23.16;57.21;101088.91;5051336;28;20040;-86
2022/09/08 06:42:33;;;;;;;15.38;4.95;;;;;;;23.08;57.26;101083.56;5052973;28;20031;-82
2022/09/08 06:45:01;;;;;;;11.45;4.65;;;;;;;23.12;57.32;101087.59;5051738;28;20025;-83
2022/09/08 06:47:39;;;;;;;13.27;4.78;;;;;;;23.11;57.52;101089.50;5051246;28;20127;-83
2022/09/08 06:50:06;;;;;;;15.65;4.63;;;;;;;23.17;57.23;101096.97;5055263;28;20029;-79
2022/09/08 06:52:45;;;;;;;25.02;5.85;;;;;;;23.23;57.03;101095.31;5054741;28;20037;-80
2022/09/08 06:55:42;;;;;;;16.50;5.20;;;;;;;23.30;57.04;101094.31;5053698;28;20051;-81
2022/09/08 06:58:31;;;;;;;10.50;3.85;;;;;;;23.41;56.66;101103.13;5047642;28;20048;-80
2022/09/08 07:01:21;;;;;;;9.57;4.25;;;;;;;23.41;56.46;101098.50;5046367;28;20085;-81
2022/09/08 07:04:04;;;;;;;21.17;4.40;;;;;;;23.48;56.14;101099.41;5053788;28;20035;-84
2022/09/08 07:06:48;;;;;;;15.73;5.05;;;;;;;23.44;56.26;101091.75;5054755;28;20025;-80
2022/09/08 07:09:26;;;;;;;8.90;3.43;;;;;;;23.51;56.06;101106.41;5052788;28;20135;-82
2022/09/08 07:12:02;;;;;;;16.67;4.63;;;;;;;23.51;55.66;101081.69;5053210;28;20033;-81
2022/09/08 07:14:41;;;;;;;17.48;3.75;;;;;;;23.64;54.57;101103.75;5055125;28;20052;-80
2022/09/08 07:17:21;;;;;;;12.75;4.60;;;;;;;23.68;55.11;101100.44;5054095;28;20033;-81
2022/09/08 07:19:53;;;;;;;9.25;4.10;;;;;;;23.76;54.47;101091.16;5054440;28;20551;-81
2022/09/08 07:22:47;;;;;;;22.00;6.97;;;;;;;23.78;54.60;101095.44;5053520;28;20482;-86
2022/09/08 07:25:34;;;;;;;9.15;4.28;;;;;;;23.85;54.63;101107.31;5054085;28;20029;-84
2022/09/08 07:28:05;;;;;;;35.33;6.00;;;;;;;23.87;54.08;101103.53;5054324;28;20032;-85
2022/09/08 07:30:34;;;;;;;17.55;4.50;;;;;;;23.78;54.56;101100.94;5053802;28;20410;-85
2022/09/08 07:33:24;;;;;;;15.93;4.40;;;;;;;23.83;54.69;101101.19;5055684;28;20028;-85
2022/09/08 07:35:56;;;;;;;10.18;3.70;;;;;;;23.82;54.05;101102.22;5054301;28;20030;-88
2022/09/08 07:38:37;;;;;;;19.47;4.47;;;;;;;23.76;54.58;101102.16;5055107;28;20092;-86
2022/09/08 07:41:06;;;;;;;15.57;4.20;;;;;;;23.71;54.76;101091.78;5054183;28;20136;-87
2022/09/08 07:43:31;;;;;;;9.25;3.70;;;;;;;23.85;54.79;101104.56;5053972;28;20454;-87
2022/09/08 07:46:32;;;;;;;27.42;4.95;;;;;;;23.80;53.80;101109.81;5054641;28;20025;-86
2022/09/08 07:49:13;;;;;;;14.38;5.45;;;;;;;23.84;54.74;101113.88;5055825;28;20162;-86
2022/09/08 07:52:00;;;;;;;11.32;3.85;;;;;;;23.82;54.67;101110.47;5055353;28;20025;-85
2022/09/08 07:55:00;;;;;;;31.05;5.20;;;;;;;23.81;55.09;101122.53;5055167;28;20447;-85
2022/09/08 07:58:15;;;;;;;17.00;4.45;;;;;;;23.78;55.02;101113.81;5054010;28;20517;-85
2022/09/08 08:00:53;;;;;;;12.07;4.13;;;;;;;23.87;55.30;101111.78;5012612;28;20520;-80
2022/09/08 08:03:33;;;;;;;13.65;4.55;;;;;;;23.90;53.99;101114.13;5053625;28;20029;-84
2022/09/08 08:06:22;;;;;;;9.38;3.78;;;;;;;23.85;53.58;101115.56;5053779;28;20068;-81
2022/09/08 08:09:15;;;;;;;18.27;4.50;;;;;;;23.87;53.15;101114.53;5041261;28;20094;-80
2022/09/08 08:11:53;;;;;;;19.38;3.88;;;;;;;23.92;53.42;101112.00;5053282;28;20025;-81
2022/09/08 08:14:19;;;;;;;18.02;3.88;;;;;;;23.92;53.38;101117.50;5053003;28;20045;-80
2022/09/08 08:17:02;;;;;;;12.85;3.88;;;;;;;24.02;53.78;101115.28;5053209;28;20040;-80
2022/09/08 08:19:40;;;;;;;18.50;4.43;;;;;;;24.10;54.09;101115.09;5051351;28;20064;-80
2022/09/08 08:22:18;;;;;;;20.88;4.10;;;;;;;24.10;54.59;101104.09;5053606;28;20020;-80
2022/09/08 08:25:09;;;;;;;21.20;4.32;;;;;;;24.17;54.71;101114.16;5053442;28;20036;-81
2022/09/08 08:27:56;;;;;;;17.25;5.63;;;;;;;24.22;54.62;101108.03;5052694;28;20021;-82
2022/09/08 08:30:23;;;;;;;17.60;5.20;;;;;;;24.21;54.12;101103.59;5051328;28;20512;-81
2022/09/08 08:32:56;;;;;;;20.20;3.20;;;;;;;24.19;54.64;101092.78;5051259;28;20037;-81
2022/09/08 08:35:39;;;;;;;11.68;4.72;;;;;;;24.22;54.75;101080.53;5052500;28;20513;-80
2022/09/08 08:38:06;;;;;;;20.25;4.38;;;;;;;24.30;54.74;101091.38;5052084;28;20059;-83
2022/09/08 08:40:49;;;;;;;14.23;4.03;;;;;;;;;;5053722;28;20020;-83
2022/09/08 08:43:46;;;;;;;5.20;3.35;;;;;;;24.37;53.99;101104.09;5052595;28;20048;-81
2022/09/08 08:46:30;;;;;;;7.47;3.60;;;;;;;24.47;54.05;101106.50;5052718;28;20048;-86
2022/09/08 08:49:18;;;;;;;18.40;4.20;;;;;;;24.56;53.05;101099.75;5054075;28;20052;-80
2022/09/08 08:52:01;;;;;;;12.98;4.68;;;;;;;24.53;54.01;101104.81;5053260;28;20029;-80
2022/09/08 08:54:43;;;;;;;14.63;3.88;;;;;;;24.61;53.37;101107.41;5051139;28;20028;-81
2022/09/08 08:57:46;;;;;;;11.80;3.75;;;;;;;24.55;52.63;101106.34;5051866;28;20028;-82
2022/09/08 09:00:19;;;;;;;9.63;3.65;;;;;;;24.55;53.12;101102.72;5050441;28;20025;-80
2022/09/08 09:03:23;;;;;;;17.60;4.60;;;;;;;24.67;53.36;101101.09;5053482;28;20028;-79
2022/09/08 09:05:54;;;;;;;9.00;3.60;;;;;;;24.62;54.04;101098.09;5051000;28;20491;-79
2022/09/08 09:08:24;;;;;;;11.10;4.50;;;;;;;24.63;54.14;101092.41;5051984;28;20195;-80
2022/09/08 09:11:21;;;;;;;19.88;4.13;;;;;;;24.64;53.08;101094.09;5050202;28;20458;-80
2022/09/08 09:14:06;;;;;;;13.02;3.97;;;;;;;24.59;53.21;101088.34;5049805;28;20414;-79
2022/09/08 09:16:38;;;;;;;35.33;8.77;;;;;;;24.57;53.19;101090.47;5050400;28;20486;-79
2022/09/08 09:19:09;;;;;;;17.38;5.40;;;;;;;24.53;53.72;101089.16;5051895;28;20029;-79
2022/09/08 09:21:53;;;;;;;12.43;4.70;;;;;;;24.47;54.19;101079.00;5051913;28;20056;-81
2022/09/08 09:24:24;;;;;;;17.92;4.15;;;;;;;24.60;53.92;101079.06;5052296;28;20480;-80
2022/09/08 09:26:53;;;;;;;19.75;4.10;;;;;;;24.59;53.96;101080.09;5051360;28;20025;-80
2022/09/08 09:29:27;;;;;;;12.13;4.13;;;;;;;24.64;53.67;101079.50;5034939;28;20419;-81
2022/09/08 09:32:00;;;;;;;9.25;3.42;;;;;;;24.83;53.57;101067.75;5049387;28;20039;-80
2022/09/08 09:34:49;;;;;;;12.70;4.03;;;;;;;24.88;53.43;101068.81;5052357;28;20029;-80
2022/09/08 09:37:47;;;;;;;17.13;4.00;;;;;;;24.95;53.18;101063.34;5052384;28;20112;-80
2022/09/08 09:40:33;;;;;;;7.00;3.67;;;;;;;25.09;53.03;101069.72;5050439;28;20044;-80
2022/09/08 09:43:08;;;;;;;20.33;4.63;;;;;;;25.15;52.43;101078.00;5051429;28;20483;-80
2022/09/08 09:45:46;;;;;;;12.25;3.83;;;;;;;25.11;52.81;101070.34;5051033;28;20394;-80
2022/09/08 09:48:49;;;;;;;11.18;3.85;;;;;;;25.06;53.04;101067.38;5051158;28;20098;-80
2022/09/08 09:51:35;;;;;;;12.63;3.67;;;;;;;25.21;52.51;101059.78;5052069;28;20364;-80
2022/09/08 09:54:14;;;;;;;23.63;5.03;;;;;;;25.04;53.72;101069.50;5052260;28;20033;-81
2022/09/08 09:57:16;;;;;;;36.75;4.30;;;;;;;25.06;52.44;101061.88;5052339;28;20467;-81
2022/09/08 10:00:04;;;;;;;9.57;2.95;;;;;;;25.13;52.31;101065.50;5051714;28;20490;-81
2022/09/08 10:02:39;;;;;;;19.05;8.32;;;;;;;25.30;52.70;101066.78;5050307;28;20170;-81
2022/09/08 10:05:20;;;;;;;7.95;3.15;;;;;;;25.19;51.73;101062.75;5053201;28;20029;-81
2022/09/08 10:08:06;;;;;;;13.27;3.38;;;;;;;25.36;52.31;101057.69;5051530;28;20104;-82
2022/09/08 10:11:01;;;;;;;15.30;3.97;;;;;;;25.59;52.08;101063.66;5051547;28;20033;-82
2022/09/08 10:13:53;;;;;;;13.02;4.03;;;;;;;25.63;51.17;101053.91;5014757;28;20049;-81
2022/09/08 10:16:34;;;;;;;25.48;4.43;;;;;;;25.78;50.83;101049.00;5050208;28;20127;-82
2022/09/08 10:19:19;;;;;;;11.43;3.25;;;;;;;26.00;51.12;101046.84;5051862;28;20033;-82
2022/09/08 10:22:11;;;;;;;8.88;3.95;;;;;;;26.16;51.08;101042.81;5051039;28;20029;-82
2022/09/08 10:25:08;;;;;;;14.70;3.83;;;;;;;26.06;49.73;101047.91;5051781;28;20044;-82
2022/09/08 10:27:46;;;;;;;12.00;3.45;;;;;;;25.90;50.66;101046.47;5048099;28;20510;-82
2022/09/08 10:30:14;;;;;;;19.75;3.83;;;;;;;25.85;51.12;101046.25;5050472;28;20483;-81
2022/09/08 10:33:14;;;;;;;16.25;4.30;;;;;;;25.88;50.59;101034.78;5050594;28;20029;-81
2022/09/08 10:36:09;;;;;;;16.85;4.43;;;;;;;26.05;50.46;101052.59;5051887;28;20039;-81
2022/09/08 10:38:50;;;;;;;11.65;3.83;;;;;;;26.01;50.33;101050.47;5050805;28;20124;-82
2022/09/08 10:41:40;;;;;;;21.42;4.82;;;;;;;25.91;50.38;101051.75;5051578;28;20021;-81
2022/09/08 10:44:27;;;;;;;17.55;4.85;;;;;;;25.95;51.12;101053.03;5051956;28;20024;-82
2022/09/08 10:47:19;;;;;;;32.50;3.90;;;;;;;25.86;50.29;101057.06;5051926;28;20064;-81
2022/09/08 10:49:48;;;;;;;;;;;;;;;25.77;50.34;101055.59;5052377;28;20103;-81
2022/09/08 10:52:26;;;;;;;10.50;5.07;;;;;;;25.87;50.65;101039.44;5050187;28;19943;-81
2022/09/08 10:55:29;;;;;;;15.60;4.22;;;;;;;26.13;50.19;101048.75;5050533;28;20063;-82
2022/09/08 10:58:07;;;;;;;9.35;3.50;;;;;;;26.08;50.42;101045.78;5051626;28;20437;-82
2022/09/08 11:00:45;;;;;;;18.70;4.53;;;;;;;26.03;50.40;101031.78;5050278;28;20036;-82
2022/09/08 11:03:29;;;;;;;24.00;4.15;;;;;;;26.14;51.29;101034.75;5050491;28;20079;-81
2022/09/08 11:06:07;;;;;;;17.05;4.43;;;;;;;26.22;51.12;101034.53;5051563;28;20029;-81
2022/09/08 11:08:55;;;;;;;12.68;3.50;;;;;;;26.22;50.95;101026.25;5051446;28;20029;-82
2022/09/08 11:11:46;;;;;;;25.08;4.35;;;;;;;26.23;51.06;101024.34;5051579;28;20032;-81
2022/09/08 11:14:16;;;;;;;9.60;3.10;;;;;;;26.15;51.46;101035.56;5050069;28;20134;-82
2022/09/08 11:17:08;;;;;;;14.85;3.88;;;;;;;26.24;50.04;101034.31;5051037;28;20495;-82
2022/09/08 11:19:40;;;;;;;17.83;4.22;;;;;;;26.23;50.46;101021.59;5049309;28;20082;-81
2022/09/08 11:22:08;;;;;;;16.38;3.40;;;;;;;26.42;50.19;101040.00;5050753;28;20029;-82
2022/09/08 11:25:12;;;;;;;10.07;3.03;;;;;;;26.24;50.19;101035.16;5049813;28;20071;-81
2022/09/08 11:28:14;;;;;;;9.88;3.78;;;;;;;26.30;50.42;101033.44;5050907;28;20028;-82
2022/09/08 11:31:04;;;;;;;8.30;3.77;;;;;;;26.38;50.10;101036.81;5049917;28;20083;-81
2022/09/08 11:33:54;;;;;;;7.88;3.38;;;;;;;26.22;49.68;101037.28;5051180;28;20313;-82
2022/09/08 11:36:50;;;;;;;15.15;3.58;;;;;;;26.07;49.80;101033.06;5053569;28;20036;-80
2022/09/08 11:39:46;;;;;;;18.80;3.58;;;;;;;26.21;50.31;101030.06;5053766;28;20025;-81
2022/09/08 11:42:30;;;;;;;21.23;4.88;;;;;;;26.34;50.66;101030.03;5054615;28;20159;-81
2022/09/08 11:44:58;;;;;;;11.02;3.78;;;;;;;26.45;50.83;101032.09;5054393;28;20031;-81
2022/09/08 11:47:37;;;;;;;18.55;4.40;;;;;;;26.50;50.48;101024.03;5054434;28;20094;-81
2022/09/08 11:50:17;;;;;;;22.67;5.30;;;;;;;26.72;49.95;101023.72;5054631;28;20024;-82
2022/09/08 11:52:49;;;;;;;14.50;4.28;;;;;;;26.91;49.97;101020.84;5054691;28;20021;-81
2022/09/08 11:55:41;;;;;;;11.57;4.13;;;;;;;27.01;50.08;101026.75;5054262;28;20112;-81
2022/09/08 11:58:32;;;;;;;17.48;3.97;;;;;;;26.64;50.63;101019.28;5054483;28;20028;-81